sensor_id;sensor_type;location;lat;lon;timestamp;temperature;humidity
20070;DHT22;10195;50.868;4.382;2023-02-28T00:00:27;2.20;99.90
20070;DHT22;10195;50.868;4.382;2023-02-28T00:02:52;2.20;99.90
20070;DHT22;10195;50.868;4.382;2023-02-28T00:05:20;2.00;99.90
20070;DHT22;10195;50.868;4.382;2023-02-28T00:07:47;2.00;99.90
20070;DHT22;10195;50.868;4.382;2023-02-28T00:10:20;2.00;99.90
20070;DHT22;10195;50.868;4.382;2023-02-28T00:12:48;2.00;99.90
20070;DHT22;10195;50.868;4.382;2023-02-28T00:15:14;2.00;99.90
20070;DHT22;10195;50.868;4.382;2023-02-28T00:17:39;1.90;99.90
20070;DHT22;10195;50.868;4.382;2023-02-28T00:20:06;1.70;99.90
20070;DHT22;10195;50.868;4.382;2023-02-28T00:22:42;1.80;99.90
20070;DHT22;10195;50.868;4.382;2023-02-28T00:25:09;1.70;99.90
20070;DHT22;10195;50.868;4.382;2023-02-28T00:27:36;1.70;99.90
20070;DHT22;10195;50.868;4.382;2023-02-28T00:30:03;1.60;99.90
20070;DHT22;10195;50.868;4.382;2023-02-28T00:32:29;1.60;99.90
20070;DHT22;10195;50.868;4.382;2023-02-28T00:34:56;1.70;99.90
20070;DHT22;10195;50.868;4.382;2023-02-28T00:37:21;1.70;99.90
20070;DHT22;10195;50.868;4.382;2023-02-28T00:39:47;1.70;99.90
20070;DHT22;10195;50.868;4.382;2023-02-28T00:42:13;1.80;99.90
20070;DHT22;10195;50.868;4.382;2023-02-28T00:44:39;1.80;99.90
20070;DHT22;10195;50.868;4.382;2023-02-28T00:47:04;1.80;99.90
20070;DHT22;10195;50.868;4.382;2023-02-28T00:49:30;1.90;99.90
20070;DHT22;10195;50.868;4.382;2023-02-28T00:51:56;1.80;99.90
20070;DHT22;10195;50.868;4.382;2023-02-28T00:54:23;1.70;99.90
20070;DHT22;10195;50.868;4.382;2023-02-28T00:56:48;1.80;99.90
20070;DHT22;10195;50.868;4.382;2023-02-28T00:59:15;1.70;99.90
20070;DHT22;10195;50.868;4.382;2023-02-28T01:01:41;1.70;99.90
20070;DHT22;10195;50.868;4.382;2023-02-28T01:04:08;1.60;99.90
20070;DHT22;10195;50.868;4.382;2023-02-28T01:06:33;1.70;99.90
20070;DHT22;10195;50.868;4.382;2023-02-28T01:09:00;1.50;99.90
20070;DHT22;10195;50.868;4.382;2023-02-28T01:11:25;1.60;99.90
20070;DHT22;10195;50.868;4.382;2023-02-28T01:13:51;1.60;99.90
20070;DHT22;10195;50.868;4.382;2023-02-28T01:16:17;1.60;99.90
20070;DHT22;10195;50.868;4.382;2023-02-28T01:18:44;1.60;99.90
20070;DHT22;10195;50.868;4.382;2023-02-28T01:21:15;1.60;99.90
20070;DHT22;10195;50.868;4.382;2023-02-28T01:23:42;1.60;99.90
20070;DHT22;10195;50.868;4.382;2023-02-28T01:26:22;1.60;99.90
20070;DHT22;10195;50.868;4.382;2023-02-28T01:28:49;1.40;99.90
20070;DHT22;10195;50.868;4.382;2023-02-28T01:31:15;1.40;99.90
20070;DHT22;10195;50.868;4.382;2023-02-28T01:33:41;1.40;99.90
20070;DHT22;10195;50.868;4.382;2023-02-28T01:38:38;1.30;99.90
20070;DHT22;10195;50.868;4.382;2023-02-28T01:41:04;1.30;99.90
20070;DHT22;10195;50.868;4.382;2023-02-28T01:46:22;1.30;99.90
20070;DHT22;10195;50.868;4.382;2023-02-28T01:54:12;1.20;99.90
20070;DHT22;10195;50.868;4.382;2023-02-28T01:56:42;1.10;99.90
20070;DHT22;10195;50.868;4.382;2023-02-28T01:59:09;1.10;99.90
20070;DHT22;10195;50.868;4.382;2023-02-28T02:01:35;1.20;99.90
20070;DHT22;10195;50.868;4.382;2023-02-28T02:04:02;1.20;99.90
20070;DHT22;10195;50.868;4.382;2023-02-28T02:06:43;1.20;99.90
20070;DHT22;10195;50.868;4.382;2023-02-28T02:09:10;1.20;99.90
20070;DHT22;10195;50.868;4.382;2023-02-28T02:11:36;1.20;99.90
20070;DHT22;10195;50.868;4.382;2023-02-28T02:14:38;1.10;99.90
20070;DHT22;10195;50.868;4.382;2023-02-28T02:17:19;1.00;99.90
20070;DHT22;10195;50.868;4.382;2023-02-28T02:31:36;1.20;99.90
20070;DHT22;10195;50.868;4.382;2023-02-28T02:36:54;1.20;99.90
20070;DHT22;10195;50.868;4.382;2023-02-28T02:39:27;1.10;99.90
20070;DHT22;10195;50.868;4.382;2023-02-28T02:41:59;1.10;99.90
20070;DHT22;10195;50.868;4.382;2023-02-28T02:44:43;1.00;99.90
20070;DHT22;10195;50.868;4.382;2023-02-28T02:47:18;0.90;99.90
20070;DHT22;10195;50.868;4.382;2023-02-28T02:49:55;1.00;99.90
20070;DHT22;10195;50.868;4.382;2023-02-28T02:52:24;1.00;99.90
20070;DHT22;10195;50.868;4.382;2023-02-28T02:54:52;1.10;99.90
20070;DHT22;10195;50.868;4.382;2023-02-28T02:57:36;1.00;99.90
20070;DHT22;10195;50.868;4.382;2023-02-28T03:00:05;1.10;99.90
20070;DHT22;10195;50.868;4.382;2023-02-28T03:02:35;1.00;99.90
20070;DHT22;10195;50.868;4.382;2023-02-28T03:05:09;1.10;99.90
20070;DHT22;10195;50.868;4.382;2023-02-28T03:07:39;1.10;99.90
20070;DHT22;10195;50.868;4.382;2023-02-28T03:10:33;1.10;99.90
20070;DHT22;10195;50.868;4.382;2023-02-28T03:19:05;0.90;99.90
20070;DHT22;10195;50.868;4.382;2023-02-28T03:21:52;0.90;99.90
20070;DHT22;10195;50.868;4.382;2023-02-28T03:24:39;0.90;99.90
20070;DHT22;10195;50.868;4.382;2023-02-28T03:27:11;0.80;99.90
20070;DHT22;10195;50.868;4.382;2023-02-28T03:29:46;0.70;99.90
20070;DHT22;10195;50.868;4.382;2023-02-28T03:32:29;0.70;99.90
20070;DHT22;10195;50.868;4.382;2023-02-28T03:35:14;0.80;99.90
20070;DHT22;10195;50.868;4.382;2023-02-28T03:37:52;0.70;99.90
20070;DHT22;10195;50.868;4.382;2023-02-28T03:40:25;0.70;99.90
20070;DHT22;10195;50.868;4.382;2023-02-28T03:42:57;0.70;99.90
20070;DHT22;10195;50.868;4.382;2023-02-28T03:45:27;0.60;99.90
20070;DHT22;10195;50.868;4.382;2023-02-28T03:50:45;0.60;99.90
20070;DHT22;10195;50.868;4.382;2023-02-28T03:53:25;0.70;99.90
20070;DHT22;10195;50.868;4.382;2023-02-28T03:56:17;0.70;99.90
20070;DHT22;10195;50.868;4.382;2023-02-28T04:01:40;0.80;99.90
20070;DHT22;10195;50.868;4.382;2023-02-28T04:04:08;0.80;99.90
20070;DHT22;10195;50.868;4.382;2023-02-28T04:06:34;0.80;99.90
20070;DHT22;10195;50.868;4.382;2023-02-28T04:09:00;0.80;99.90
20070;DHT22;10195;50.868;4.382;2023-02-28T04:11:48;0.80;99.90
20070;DHT22;10195;50.868;4.382;2023-02-28T04:14:16;0.60;99.90
20070;DHT22;10195;50.868;4.382;2023-02-28T04:16:42;0.40;99.90
20070;DHT22;10195;50.868;4.382;2023-02-28T04:19:10;0.50;99.90
20070;DHT22;10195;50.868;4.382;2023-02-28T04:21:41;0.50;99.90
20070;DHT22;10195;50.868;4.382;2023-02-28T04:24:09;0.50;99.90
20070;DHT22;10195;50.868;4.382;2023-02-28T04:26:40;0.50;99.90
20070;DHT22;10195;50.868;4.382;2023-02-28T04:29:07;0.60;99.90
20070;DHT22;10195;50.868;4.382;2023-02-28T04:31:33;0.70;99.90
20070;DHT22;10195;50.868;4.382;2023-02-28T04:33:59;0.60;99.90
20070;DHT22;10195;50.868;4.382;2023-02-28T04:36:25;0.60;99.90
20070;DHT22;10195;50.868;4.382;2023-02-28T04:38:51;0.60;99.90
20070;DHT22;10195;50.868;4.382;2023-02-28T04:41:17;0.60;99.90
20070;DHT22;10195;50.868;4.382;2023-02-28T04:43:43;0.50;99.90
20070;DHT22;10195;50.868;4.382;2023-02-28T04:46:09;0.60;99.90
20070;DHT22;10195;50.868;4.382;2023-02-28T04:48:37;0.70;99.90
20070;DHT22;10195;50.868;4.382;2023-02-28T04:51:09;0.60;99.90
20070;DHT22;10195;50.868;4.382;2023-02-28T04:53:36;0.60;99.90
20070;DHT22;10195;50.868;4.382;2023-02-28T04:56:02;0.60;99.90
20070;DHT22;10195;50.868;4.382;2023-02-28T04:58:28;0.50;99.90
20070;DHT22;10195;50.868;4.382;2023-02-28T05:01:05;0.50;99.90
20070;DHT22;10195;50.868;4.382;2023-02-28T05:03:41;0.50;99.90
20070;DHT22;10195;50.868;4.382;2023-02-28T05:06:08;0.40;99.90
20070;DHT22;10195;50.868;4.382;2023-02-28T05:08:33;0.50;99.90
20070;DHT22;10195;50.868;4.382;2023-02-28T05:11:00;0.60;99.90
20070;DHT22;10195;50.868;4.382;2023-02-28T05:13:27;0.60;99.90
20070;DHT22;10195;50.868;4.382;2023-02-28T05:15:53;0.60;99.90
20070;DHT22;10195;50.868;4.382;2023-02-28T05:18:19;0.60;99.90
20070;DHT22;10195;50.868;4.382;2023-02-28T05:20:45;0.70;99.90
20070;DHT22;10195;50.868;4.382;2023-02-28T05:23:14;0.70;99.90
20070;DHT22;10195;50.868;4.382;2023-02-28T05:25:41;0.80;99.90
20070;DHT22;10195;50.868;4.382;2023-02-28T05:28:07;0.80;99.90
20070;DHT22;10195;50.868;4.382;2023-02-28T05:30:33;0.80;99.90
20070;DHT22;10195;50.868;4.382;2023-02-28T05:33:00;0.80;99.90
20070;DHT22;10195;50.868;4.382;2023-02-28T05:35:26;0.80;99.90
20070;DHT22;10195;50.868;4.382;2023-02-28T05:37:52;0.80;99.90
20070;DHT22;10195;50.868;4.382;2023-02-28T05:40:18;1.00;99.90
20070;DHT22;10195;50.868;4.382;2023-02-28T05:42:45;0.90;99.90
20070;DHT22;10195;50.868;4.382;2023-02-28T05:45:11;0.80;99.90
20070;DHT22;10195;50.868;4.382;2023-02-28T05:47:37;1.00;99.90
20070;DHT22;10195;50.868;4.382;2023-02-28T05:50:04;1.10;99.90
20070;DHT22;10195;50.868;4.382;2023-02-28T05:52:30;1.20;99.90
20070;DHT22;10195;50.868;4.382;2023-02-28T05:54:56;1.20;99.90
20070;DHT22;10195;50.868;4.382;2023-02-28T05:57:22;1.20;99.90
20070;DHT22;10195;50.868;4.382;2023-02-28T05:59:48;1.30;99.90
20070;DHT22;10195;50.868;4.382;2023-02-28T06:02:15;1.30;99.90
20070;DHT22;10195;50.868;4.382;2023-02-28T06:04:41;1.40;99.90
20070;DHT22;10195;50.868;4.382;2023-02-28T06:07:08;1.20;99.90
20070;DHT22;10195;50.868;4.382;2023-02-28T06:09:34;1.00;99.90
20070;DHT22;10195;50.868;4.382;2023-02-28T06:12:01;1.00;99.90
20070;DHT22;10195;50.868;4.382;2023-02-28T06:14:29;1.10;99.90
20070;DHT22;10195;50.868;4.382;2023-02-28T06:16:56;1.00;99.90
20070;DHT22;10195;50.868;4.382;2023-02-28T06:19:22;0.90;99.90
20070;DHT22;10195;50.868;4.382;2023-02-28T06:21:51;0.90;99.90
20070;DHT22;10195;50.868;4.382;2023-02-28T06:24:21;0.90;99.90
20070;DHT22;10195;50.868;4.382;2023-02-28T06:26:47;0.90;99.90
20070;DHT22;10195;50.868;4.382;2023-02-28T06:29:13;0.90;99.90
20070;DHT22;10195;50.868;4.382;2023-02-28T06:31:43;1.00;99.90
20070;DHT22;10195;50.868;4.382;2023-02-28T06:34:09;1.00;99.90
20070;DHT22;10195;50.868;4.382;2023-02-28T06:36:40;1.10;99.90
20070;DHT22;10195;50.868;4.382;2023-02-28T06:39:07;1.10;99.90
20070;DHT22;10195;50.868;4.382;2023-02-28T06:41:33;1.00;99.90
20070;DHT22;10195;50.868;4.382;2023-02-28T06:44:04;1.00;99.90
20070;DHT22;10195;50.868;4.382;2023-02-28T06:46:31;1.00;99.90
20070;DHT22;10195;50.868;4.382;2023-02-28T06:48:57;1.10;99.90
20070;DHT22;10195;50.868;4.382;2023-02-28T06:51:23;1.10;99.90
20070;DHT22;10195;50.868;4.382;2023-02-28T06:53:50;1.20;99.90
20070;DHT22;10195;50.868;4.382;2023-02-28T06:56:16;1.40;99.90
20070;DHT22;10195;50.868;4.382;2023-02-28T06:58:49;1.40;99.90
20070;DHT22;10195;50.868;4.382;2023-02-28T07:01:16;1.30;99.90
20070;DHT22;10195;50.868;4.382;2023-02-28T07:03:42;1.40;99.90
20070;DHT22;10195;50.868;4.382;2023-02-28T07:06:07;1.40;99.90
20070;DHT22;10195;50.868;4.382;2023-02-28T07:08:34;1.30;99.90
20070;DHT22;10195;50.868;4.382;2023-02-28T07:11:00;1.30;99.90
20070;DHT22;10195;50.868;4.382;2023-02-28T07:13:26;1.30;99.90
20070;DHT22;10195;50.868;4.382;2023-02-28T07:16:03;1.40;99.90
20070;DHT22;10195;50.868;4.382;2023-02-28T07:18:29;1.50;99.90
20070;DHT22;10195;50.868;4.382;2023-02-28T07:20:55;1.70;99.90
20070;DHT22;10195;50.868;4.382;2023-02-28T07:23:22;1.90;99.90
20070;DHT22;10195;50.868;4.382;2023-02-28T07:25:49;2.10;99.90
20070;DHT22;10195;50.868;4.382;2023-02-28T07:28:14;2.10;99.90
20070;DHT22;10195;50.868;4.382;2023-02-28T07:30:40;2.10;99.90
20070;DHT22;10195;50.868;4.382;2023-02-28T07:33:06;2.30;99.90
20070;DHT22;10195;50.868;4.382;2023-02-28T07:35:32;2.30;99.90
20070;DHT22;10195;50.868;4.382;2023-02-28T07:37:58;2.30;99.90
20070;DHT22;10195;50.868;4.382;2023-02-28T07:40:24;2.60;99.90
20070;DHT22;10195;50.868;4.382;2023-02-28T07:42:50;2.80;99.90
20070;DHT22;10195;50.868;4.382;2023-02-28T07:45:15;2.90;99.90
20070;DHT22;10195;50.868;4.382;2023-02-28T07:47:43;3.10;99.90
20070;DHT22;10195;50.868;4.382;2023-02-28T07:50:11;3.40;99.90
20070;DHT22;10195;50.868;4.382;2023-02-28T07:52:39;3.70;99.90
20070;DHT22;10195;50.868;4.382;2023-02-28T07:55:07;4.00;99.90
20070;DHT22;10195;50.868;4.382;2023-02-28T07:57:33;3.90;99.90
20070;DHT22;10195;50.868;4.382;2023-02-28T07:59:59;4.10;99.90
20070;DHT22;10195;50.868;4.382;2023-02-28T08:02:25;4.50;99.90
20070;DHT22;10195;50.868;4.382;2023-02-28T08:04:50;5.20;99.90
20070;DHT22;10195;50.868;4.382;2023-02-28T08:07:17;5.80;99.90
20070;DHT22;10195;50.868;4.382;2023-02-28T08:09:43;6.60;99.90
20070;DHT22;10195;50.868;4.382;2023-02-28T08:12:10;6.80;99.90
20070;DHT22;10195;50.868;4.382;2023-02-28T08:14:37;7.00;99.90
20070;DHT22;10195;50.868;4.382;2023-02-28T08:17:03;7.10;99.90
20070;DHT22;10195;50.868;4.382;2023-02-28T08:19:29;7.60;99.90
20070;DHT22;10195;50.868;4.382;2023-02-28T08:21:56;7.20;99.90
20070;DHT22;10195;50.868;4.382;2023-02-28T08:24:22;7.40;99.90
20070;DHT22;10195;50.868;4.382;2023-02-28T08:26:48;6.80;99.90
20070;DHT22;10195;50.868;4.382;2023-02-28T08:29:14;6.20;99.90
20070;DHT22;10195;50.868;4.382;2023-02-28T08:31:39;5.80;99.90
20070;DHT22;10195;50.868;4.382;2023-02-28T08:34:10;6.10;99.90
20070;DHT22;10195;50.868;4.382;2023-02-28T08:36:37;5.80;99.90
20070;DHT22;10195;50.868;4.382;2023-02-28T08:39:03;5.70;99.90
20070;DHT22;10195;50.868;4.382;2023-02-28T08:41:29;6.20;99.90
20070;DHT22;10195;50.868;4.382;2023-02-28T08:43:54;6.60;99.90
20070;DHT22;10195;50.868;4.382;2023-02-28T08:46:20;6.50;99.90
20070;DHT22;10195;50.868;4.382;2023-02-28T08:48:46;6.40;99.90
20070;DHT22;10195;50.868;4.382;2023-02-28T08:51:16;6.50;99.90
20070;DHT22;10195;50.868;4.382;2023-02-28T08:53:44;6.70;99.90
20070;DHT22;10195;50.868;4.382;2023-02-28T08:56:12;6.30;99.90
20070;DHT22;10195;50.868;4.382;2023-02-28T08:58:39;6.40;99.90
20070;DHT22;10195;50.868;4.382;2023-02-28T09:01:25;6.40;99.90
20070;DHT22;10195;50.868;4.382;2023-02-28T09:03:53;6.60;99.90
20070;DHT22;10195;50.868;4.382;2023-02-28T09:06:20;6.80;99.90
20070;DHT22;10195;50.868;4.382;2023-02-28T09:08:46;6.70;99.90
20070;DHT22;10195;50.868;4.382;2023-02-28T09:11:12;6.60;99.90
20070;DHT22;10195;50.868;4.382;2023-02-28T09:13:39;6.70;99.90
20070;DHT22;10195;50.868;4.382;2023-02-28T09:16:06;6.40;99.90
20070;DHT22;10195;50.868;4.382;2023-02-28T09:18:35;6.60;99.90
20070;DHT22;10195;50.868;4.382;2023-02-28T09:21:08;6.20;99.90
20070;DHT22;10195;50.868;4.382;2023-02-28T09:23:34;6.40;99.90
20070;DHT22;10195;50.868;4.382;2023-02-28T09:26:00;6.10;99.90
20070;DHT22;10195;50.868;4.382;2023-02-28T09:28:26;6.50;99.90
20070;DHT22;10195;50.868;4.382;2023-02-28T09:30:53;6.80;99.90
20070;DHT22;10195;50.868;4.382;2023-02-28T09:33:20;7.40;99.90
20070;DHT22;10195;50.868;4.382;2023-02-28T09:35:47;7.40;99.90
20070;DHT22;10195;50.868;4.382;2023-02-28T09:38:13;6.80;99.90
20070;DHT22;10195;50.868;4.382;2023-02-28T09:40:50;6.80;99.90
20070;DHT22;10195;50.868;4.382;2023-02-28T09:43:19;7.00;99.90
20070;DHT22;10195;50.868;4.382;2023-02-28T09:48:47;7.00;99.90
20070;DHT22;10195;50.868;4.382;2023-02-28T09:54:01;6.30;99.90
20070;DHT22;10195;50.868;4.382;2023-02-28T09:56:36;6.10;99.90
20070;DHT22;10195;50.868;4.382;2023-02-28T09:59:22;6.30;99.90
20070;DHT22;10195;50.868;4.382;2023-02-28T10:01:58;6.60;99.90
20070;DHT22;10195;50.868;4.382;2023-02-28T10:10:27;7.00;99.90
20070;DHT22;10195;50.868;4.382;2023-02-28T10:12:56;7.40;99.90
20070;DHT22;10195;50.868;4.382;2023-02-28T10:15:25;7.90;99.90
20070;DHT22;10195;50.868;4.382;2023-02-28T10:17:58;8.10;99.90
20070;DHT22;10195;50.868;4.382;2023-02-28T10:20:26;7.30;99.90
20070;DHT22;10195;50.868;4.382;2023-02-28T10:23:03;6.90;99.90
20070;DHT22;10195;50.868;4.382;2023-02-28T10:25:34;6.60;99.90
20070;DHT22;10195;50.868;4.382;2023-02-28T10:28:15;7.30;99.90
20070;DHT22;10195;50.868;4.382;2023-02-28T10:30:47;7.90;99.90
20070;DHT22;10195;50.868;4.382;2023-02-28T10:33:33;7.80;99.90
20070;DHT22;10195;50.868;4.382;2023-02-28T10:36:00;7.40;99.90
20070;DHT22;10195;50.868;4.382;2023-02-28T10:38:32;7.40;99.90
20070;DHT22;10195;50.868;4.382;2023-02-28T10:43:31;6.60;99.90
20070;DHT22;10195;50.868;4.382;2023-02-28T10:51:11;7.80;99.90
20070;DHT22;10195;50.868;4.382;2023-02-28T11:03:57;7.50;99.90
20070;DHT22;10195;50.868;4.382;2023-02-28T11:06:30;7.70;99.90
20070;DHT22;10195;50.868;4.382;2023-02-28T11:08:59;7.70;99.90
20070;DHT22;10195;50.868;4.382;2023-02-28T11:11:28;8.00;99.90
20070;DHT22;10195;50.868;4.382;2023-02-28T11:14:04;7.80;99.90
20070;DHT22;10195;50.868;4.382;2023-02-28T11:16:36;7.80;99.90
20070;DHT22;10195;50.868;4.382;2023-02-28T11:19:04;7.90;99.90
20070;DHT22;10195;50.868;4.382;2023-02-28T11:21:36;7.20;99.90
20070;DHT22;10195;50.868;4.382;2023-02-28T11:24:23;7.20;99.90
20070;DHT22;10195;50.868;4.382;2023-02-28T11:26:50;7.00;99.90
20070;DHT22;10195;50.868;4.382;2023-02-28T11:29:28;6.60;99.90
20070;DHT22;10195;50.868;4.382;2023-02-28T11:32:15;6.50;99.90
20070;DHT22;10195;50.868;4.382;2023-02-28T11:34:43;6.10;99.90
20070;DHT22;10195;50.868;4.382;2023-02-28T11:37:14;5.70;99.90
20070;DHT22;10195;50.868;4.382;2023-02-28T11:39:40;5.70;99.90
20070;DHT22;10195;50.868;4.382;2023-02-28T11:56:38;5.90;99.90
20070;DHT22;10195;50.868;4.382;2023-02-28T12:04:48;6.00;99.90
20070;DHT22;10195;50.868;4.382;2023-02-28T12:07:31;6.10;99.90
20070;DHT22;10195;50.868;4.382;2023-02-28T12:10:59;6.00;99.90
20070;DHT22;10195;50.868;4.382;2023-02-28T12:19:16;6.00;99.90
20070;DHT22;10195;50.868;4.382;2023-02-28T12:27:10;6.10;99.90
20070;DHT22;10195;50.868;4.382;2023-02-28T12:29:48;6.30;99.90
20070;DHT22;10195;50.868;4.382;2023-02-28T12:34:52;6.30;99.90
20070;DHT22;10195;50.868;4.382;2023-02-28T12:37:37;6.50;99.90
20070;DHT22;10195;50.868;4.382;2023-02-28T12:40:14;6.80;99.90
20070;DHT22;10195;50.868;4.382;2023-02-28T12:43:17;6.40;99.90
20070;DHT22;10195;50.868;4.382;2023-02-28T12:45:50;5.90;99.90
20070;DHT22;10195;50.868;4.382;2023-02-28T12:48:31;5.70;99.90
20070;DHT22;10195;50.868;4.382;2023-02-28T12:51:03;5.40;99.90
20070;DHT22;10195;50.868;4.382;2023-02-28T12:59:03;5.60;99.90
20070;DHT22;10195;50.868;4.382;2023-02-28T13:01:57;5.80;99.90
20070;DHT22;10195;50.868;4.382;2023-02-28T13:04:38;5.80;99.90
20070;DHT22;10195;50.868;4.382;2023-02-28T13:10:06;5.90;99.90
20070;DHT22;10195;50.868;4.382;2023-02-28T13:12:33;6.00;99.90
20070;DHT22;10195;50.868;4.382;2023-02-28T13:15:27;5.80;99.90
20070;DHT22;10195;50.868;4.382;2023-02-28T13:17:56;5.70;99.90
20070;DHT22;10195;50.868;4.382;2023-02-28T13:20:25;5.60;99.90
20070;DHT22;10195;50.868;4.382;2023-02-28T13:22:54;5.90;99.90
20070;DHT22;10195;50.868;4.382;2023-02-28T13:27:53;5.60;99.90
20070;DHT22;10195;50.868;4.382;2023-02-28T13:46:28;6.30;99.90
20070;DHT22;10195;50.868;4.382;2023-02-28T13:48:54;7.00;99.90
20070;DHT22;10195;50.868;4.382;2023-02-28T13:51:38;8.30;99.90
20070;DHT22;10195;50.868;4.382;2023-02-28T13:54:26;8.70;99.90
20070;DHT22;10195;50.868;4.382;2023-02-28T13:57:23;8.70;99.90
20070;DHT22;10195;50.868;4.382;2023-02-28T14:03:07;6.90;99.90
20070;DHT22;10195;50.868;4.382;2023-02-28T14:05:36;6.40;99.90
20070;DHT22;10195;50.868;4.382;2023-02-28T14:08:19;6.30;99.90
20070;DHT22;10195;50.868;4.382;2023-02-28T14:10:48;6.10;99.90
20070;DHT22;10195;50.868;4.382;2023-02-28T14:13:42;6.00;99.90
20070;DHT22;10195;50.868;4.382;2023-02-28T14:16:14;6.10;99.90
20070;DHT22;10195;50.868;4.382;2023-02-28T14:18:47;6.10;99.90
20070;DHT22;10195;50.868;4.382;2023-02-28T14:21:34;6.00;99.90
20070;DHT22;10195;50.868;4.382;2023-02-28T14:27:03;5.80;99.90
20070;DHT22;10195;50.868;4.382;2023-02-28T14:32:28;5.90;99.90
20070;DHT22;10195;50.868;4.382;2023-02-28T14:35:27;5.90;99.90
20070;DHT22;10195;50.868;4.382;2023-02-28T14:37:55;5.80;99.90
20070;DHT22;10195;50.868;4.382;2023-02-28T14:40:24;5.80;99.90
20070;DHT22;10195;50.868;4.382;2023-02-28T14:43:03;5.90;99.90
20070;DHT22;10195;50.868;4.382;2023-02-28T14:45:31;6.00;99.90
20070;DHT22;10195;50.868;4.382;2023-02-28T14:47:58;5.90;99.90
20070;DHT22;10195;50.868;4.382;2023-02-28T14:50:34;5.80;99.90
20070;DHT22;10195;50.868;4.382;2023-02-28T14:53:00;5.80;99.90
20070;DHT22;10195;50.868;4.382;2023-02-28T14:55:34;5.90;99.90
20070;DHT22;10195;50.868;4.382;2023-02-28T14:58:03;5.60;99.90
20070;DHT22;10195;50.868;4.382;2023-02-28T15:00:36;5.50;99.90
20070;DHT22;10195;50.868;4.382;2023-02-28T15:03:22;5.50;99.90
20070;DHT22;10195;50.868;4.382;2023-02-28T15:06:03;5.60;99.90
20070;DHT22;10195;50.868;4.382;2023-02-28T15:08:30;5.60;99.90
20070;DHT22;10195;50.868;4.382;2023-02-28T15:11:26;5.70;99.90
20070;DHT22;10195;50.868;4.382;2023-02-28T15:13:53;5.70;99.90
20070;DHT22;10195;50.868;4.382;2023-02-28T15:16:37;5.50;99.90
20070;DHT22;10195;50.868;4.382;2023-02-28T15:19:16;5.50;99.90
20070;DHT22;10195;50.868;4.382;2023-02-28T15:21:49;5.50;99.90
20070;DHT22;10195;50.868;4.382;2023-02-28T15:24:21;5.50;99.90
20070;DHT22;10195;50.868;4.382;2023-02-28T15:26:57;5.40;99.90
20070;DHT22;10195;50.868;4.382;2023-02-28T15:29:25;5.40;99.90
20070;DHT22;10195;50.868;4.382;2023-02-28T15:32:07;5.50;99.90
20070;DHT22;10195;50.868;4.382;2023-02-28T15:34:41;5.60;99.90
20070;DHT22;10195;50.868;4.382;2023-02-28T15:39:53;5.60;99.90
20070;DHT22;10195;50.868;4.382;2023-02-28T15:42:22;5.50;99.90
20070;DHT22;10195;50.868;4.382;2023-02-28T15:44:48;5.50;99.90
20070;DHT22;10195;50.868;4.382;2023-02-28T15:47:21;5.50;99.90
20070;DHT22;10195;50.868;4.382;2023-02-28T15:50:11;5.50;99.90
20070;DHT22;10195;50.868;4.382;2023-02-28T15:52:43;5.70;99.90
20070;DHT22;10195;50.868;4.382;2023-02-28T15:55:22;5.70;99.90
20070;DHT22;10195;50.868;4.382;2023-02-28T15:57:55;5.70;99.90
20070;DHT22;10195;50.868;4.382;2023-02-28T16:00:26;5.60;99.90
20070;DHT22;10195;50.868;4.382;2023-02-28T16:02:52;5.50;99.90
20070;DHT22;10195;50.868;4.382;2023-02-28T16:05:30;5.50;99.90
20070;DHT22;10195;50.868;4.382;2023-02-28T16:08:14;5.40;99.90
20070;DHT22;10195;50.868;4.382;2023-02-28T16:10:40;5.50;99.90
20070;DHT22;10195;50.868;4.382;2023-02-28T16:13:06;5.50;99.90
20070;DHT22;10195;50.868;4.382;2023-02-28T16:15:37;5.70;99.90
20070;DHT22;10195;50.868;4.382;2023-02-28T16:18:10;5.60;99.90
20070;DHT22;10195;50.868;4.382;2023-02-28T16:20:36;5.50;99.90
20070;DHT22;10195;50.868;4.382;2023-02-28T16:23:02;5.50;99.90
20070;DHT22;10195;50.868;4.382;2023-02-28T16:25:39;5.40;99.90
20070;DHT22;10195;50.868;4.382;2023-02-28T16:28:20;5.30;99.90
20070;DHT22;10195;50.868;4.382;2023-02-28T16:30:46;5.50;99.90
20070;DHT22;10195;50.868;4.382;2023-02-28T16:33:12;5.50;99.90
20070;DHT22;10195;50.868;4.382;2023-02-28T16:35:37;5.50;99.90
20070;DHT22;10195;50.868;4.382;2023-02-28T16:38:03;5.40;99.90
20070;DHT22;10195;50.868;4.382;2023-02-28T16:40:33;5.30;99.90
20070;DHT22;10195;50.868;4.382;2023-02-28T16:43:00;5.30;99.90
20070;DHT22;10195;50.868;4.382;2023-02-28T16:45:29;5.30;99.90
20070;DHT22;10195;50.868;4.382;2023-02-28T16:47:55;5.30;99.90
20070;DHT22;10195;50.868;4.382;2023-02-28T16:50:23;5.30;99.90
20070;DHT22;10195;50.868;4.382;2023-02-28T16:52:49;5.20;99.90
20070;DHT22;10195;50.868;4.382;2023-02-28T16:55:18;5.10;99.90
20070;DHT22;10195;50.868;4.382;2023-02-28T16:57:46;5.10;99.90
20070;DHT22;10195;50.868;4.382;2023-02-28T17:00:13;5.10;99.90
20070;DHT22;10195;50.868;4.382;2023-02-28T17:02:39;5.00;99.90
20070;DHT22;10195;50.868;4.382;2023-02-28T17:05:06;5.00;99.90
20070;DHT22;10195;50.868;4.382;2023-02-28T17:07:31;5.00;99.90
20070;DHT22;10195;50.868;4.382;2023-02-28T17:09:57;5.00;99.90
20070;DHT22;10195;50.868;4.382;2023-02-28T17:12:23;5.00;99.90
20070;DHT22;10195;50.868;4.382;2023-02-28T17:14:49;4.90;99.90
20070;DHT22;10195;50.868;4.382;2023-02-28T17:17:18;4.90;99.90
20070;DHT22;10195;50.868;4.382;2023-02-28T17:19:45;5.00;99.90
20070;DHT22;10195;50.868;4.382;2023-02-28T17:22:11;5.00;99.90
20070;DHT22;10195;50.868;4.382;2023-02-28T17:24:37;5.00;99.90
20070;DHT22;10195;50.868;4.382;2023-02-28T17:27:03;5.00;99.90
20070;DHT22;10195;50.868;4.382;2023-02-28T17:29:29;4.90;99.90
20070;DHT22;10195;50.868;4.382;2023-02-28T17:31:54;4.80;99.90
20070;DHT22;10195;50.868;4.382;2023-02-28T17:34:21;4.60;99.90
20070;DHT22;10195;50.868;4.382;2023-02-28T17:36:49;4.70;99.90
20070;DHT22;10195;50.868;4.382;2023-02-28T17:39:16;4.70;99.90
20070;DHT22;10195;50.868;4.382;2023-02-28T17:41:53;4.70;99.90
20070;DHT22;10195;50.868;4.382;2023-02-28T17:44:19;4.70;99.90
20070;DHT22;10195;50.868;4.382;2023-02-28T17:46:45;4.70;99.90
20070;DHT22;10195;50.868;4.382;2023-02-28T17:49:11;4.70;99.90
20070;DHT22;10195;50.868;4.382;2023-02-28T17:51:37;4.70;99.90
20070;DHT22;10195;50.868;4.382;2023-02-28T17:54:03;4.60;99.90
20070;DHT22;10195;50.868;4.382;2023-02-28T17:56:28;4.60;99.90
20070;DHT22;10195;50.868;4.382;2023-02-28T17:58:55;4.60;99.90
20070;DHT22;10195;50.868;4.382;2023-02-28T18:01:23;4.50;99.90
20070;DHT22;10195;50.868;4.382;2023-02-28T18:03:50;4.60;99.90
20070;DHT22;10195;50.868;4.382;2023-02-28T18:06:28;4.60;99.90
20070;DHT22;10195;50.868;4.382;2023-02-28T18:08:54;4.60;99.90
20070;DHT22;10195;50.868;4.382;2023-02-28T18:11:21;4.70;99.90
20070;DHT22;10195;50.868;4.382;2023-02-28T18:13:51;4.50;99.90
20070;DHT22;10195;50.868;4.382;2023-02-28T18:16:18;4.60;99.90
20070;DHT22;10195;50.868;4.382;2023-02-28T18:18:44;4.50;99.90
20070;DHT22;10195;50.868;4.382;2023-02-28T18:21:11;4.40;99.90
20070;DHT22;10195;50.868;4.382;2023-02-28T18:23:38;4.40;99.90